sensor_id;sensor_type;location;lat;lon;timestamp;P1;durP1;ratioP1;P2;durP2;ratioP2
10056;SDS011;5068;51.286;7.518;2022-11-15T00:00:17;4.00;;;2.72;;
10056;SDS011;5068;51.286;7.518;2022-11-15T00:02:10;5.80;;;2.90;;
10056;SDS011;5068;51.286;7.518;2022-11-15T00:04:03;5.03;;;3.42;;
10056;SDS011;5068;51.286;7.518;2022-11-15T00:06:00;3.58;;;2.42;;
10056;SDS011;5068;51.286;7.518;2022-11-15T00:07:56;5.25;;;3.15;;
10056;SDS011;5068;51.286;7.518;2022-11-15T00:09:49;4.07;;;2.72;;
10056;SDS011;5068;51.286;7.518;2022-11-15T00:11:42;5.45;;;2.70;;
10056;SDS011;5068;51.286;7.518;2022-11-15T00:13:37;5.00;;;3.10;;
10056;SDS011;5068;51.286;7.518;2022-11-15T00:15:30;4.43;;;2.70;;
10056;SDS011;5068;51.286;7.518;2022-11-15T00:17:23;4.47;;;2.50;;
10056;SDS011;5068;51.286;7.518;2022-11-15T00:19:16;4.50;;;2.58;;
10056;SDS011;5068;51.286;7.518;2022-11-15T00:21:10;4.60;;;3.03;;
10056;SDS011;5068;51.286;7.518;2022-11-15T00:23:05;5.18;;;3.10;;
10056;SDS011;5068;51.286;7.518;2022-11-15T00:24:59;4.88;;;3.10;;
10056;SDS011;5068;51.286;7.518;2022-11-15T00:26:52;5.90;;;3.10;;
10056;SDS011;5068;51.286;7.518;2022-11-15T00:28:46;4.63;;;3.20;;
10056;SDS011;5068;51.286;7.518;2022-11-15T00:30:40;3.80;;;2.58;;
10056;SDS011;5068;51.286;7.518;2022-11-15T00:32:33;4.65;;;2.85;;
10056;SDS011;5068;51.286;7.518;2022-11-15T00:34:26;3.90;;;2.95;;
10056;SDS011;5068;51.286;7.518;2022-11-15T00:36:19;5.25;;;3.17;;
10056;SDS011;5068;51.286;7.518;2022-11-15T00:38:12;4.50;;;3.00;;
10056;SDS011;5068;51.286;7.518;2022-11-15T00:40:06;4.38;;;2.88;;
10056;SDS011;5068;51.286;7.518;2022-11-15T00:42:00;6.07;;;3.28;;
10056;SDS011;5068;51.286;7.518;2022-11-15T00:43:55;5.95;;;3.38;;
10056;SDS011;5068;51.286;7.518;2022-11-15T00:45:49;5.55;;;3.38;;
10056;SDS011;5068;51.286;7.518;2022-11-15T00:47:43;6.22;;;3.17;;
10056;SDS011;5068;51.286;7.518;2022-11-15T00:49:37;3.78;;;2.95;;
10056;SDS011;5068;51.286;7.518;2022-11-15T00:51:30;4.15;;;2.83;;
10056;SDS011;5068;51.286;7.518;2022-11-15T00:53:23;5.50;;;3.15;;
10056;SDS011;5068;51.286;7.518;2022-11-15T00:55:17;5.38;;;3.50;;
10056;SDS011;5068;51.286;7.518;2022-11-15T00:57:11;6.07;;;3.33;;
10056;SDS011;5068;51.286;7.518;2022-11-15T00:59:06;8.00;;;3.78;;
10056;SDS011;5068;51.286;7.518;2022-11-15T01:01:05;5.38;;;3.33;;
10056;SDS011;5068;51.286;7.518;2022-11-15T01:03:00;4.43;;;3.15;;
10056;SDS011;5068;51.286;7.518;2022-11-15T01:04:53;6.60;;;3.08;;
10056;SDS011;5068;51.286;7.518;2022-11-15T01:06:47;4.30;;;2.92;;
10056;SDS011;5068;51.286;7.518;2022-11-15T01:08:40;4.55;;;3.28;;
10056;SDS011;5068;51.286;7.518;2022-11-15T01:10:34;5.72;;;3.80;;
10056;SDS011;5068;51.286;7.518;2022-11-15T01:12:29;5.78;;;3.30;;
10056;SDS011;5068;51.286;7.518;2022-11-15T01:14:23;5.85;;;3.30;;
10056;SDS011;5068;51.286;7.518;2022-11-15T01:16:17;5.45;;;3.33;;
10056;SDS011;5068;51.286;7.518;2022-11-15T01:18:10;5.80;;;3.13;;
10056;SDS011;5068;51.286;7.518;2022-11-15T01:20:04;6.20;;;3.53;;
10056;SDS011;5068;51.286;7.518;2022-11-15T01:21:58;5.25;;;3.38;;
10056;SDS011;5068;51.286;7.518;2022-11-15T01:23:52;4.25;;;2.97;;
10056;SDS011;5068;51.286;7.518;2022-11-15T01:25:46;5.90;;;3.30;;
10056;SDS011;5068;51.286;7.518;2022-11-15T01:27:39;5.30;;;3.40;;
10056;SDS011;5068;51.286;7.518;2022-11-15T01:29:34;5.72;;;3.72;;
10056;SDS011;5068;51.286;7.518;2022-11-15T01:31:27;5.32;;;3.60;;
10056;SDS011;5068;51.286;7.518;2022-11-15T01:33:21;6.82;;;3.78;;
10056;SDS011;5068;51.286;7.518;2022-11-15T01:35:14;5.28;;;3.50;;
10056;SDS011;5068;51.286;7.518;2022-11-15T01:37:07;5.60;;;3.42;;
10056;SDS011;5068;51.286;7.518;2022-11-15T01:39:01;4.30;;;3.40;;
10056;SDS011;5068;51.286;7.518;2022-11-15T01:40:54;7.70;;;3.95;;
10056;SDS011;5068;51.286;7.518;2022-11-15T01:42:47;5.35;;;3.47;;
10056;SDS011;5068;51.286;7.518;2022-11-15T01:44:43;5.00;;;3.88;;
10056;SDS011;5068;51.286;7.518;2022-11-15T01:46:39;5.18;;;3.30;;
10056;SDS011;5068;51.286;7.518;2022-11-15T01:48:39;5.85;;;3.72;;
10056;SDS011;5068;51.286;7.518;2022-11-15T01:50:32;5.45;;;3.80;;
10056;SDS011;5068;51.286;7.518;2022-11-15T01:52:26;5.10;;;3.58;;
10056;SDS011;5068;51.286;7.518;2022-11-15T01:54:23;5.03;;;3.40;;
10056;SDS011;5068;51.286;7.518;2022-11-15T01:56:19;6.50;;;3.53;;
10056;SDS011;5068;51.286;7.518;2022-11-15T01:58:15;4.65;;;3.55;;
10056;SDS011;5068;51.286;7.518;2022-11-15T02:00:14;7.75;;;3.88;;
10056;SDS011;5068;51.286;7.518;2022-11-15T02:02:08;4.97;;;3.60;;
10056;SDS011;5068;51.286;7.518;2022-11-15T02:04:02;5.85;;;3.40;;
10056;SDS011;5068;51.286;7.518;2022-11-15T02:06:03;6.70;;;3.25;;
10056;SDS011;5068;51.286;7.518;2022-11-15T02:07:59;6.50;;;3.25;;
10056;SDS011;5068;51.286;7.518;2022-11-15T02:09:53;4.90;;;3.25;;
10056;SDS011;5068;51.286;7.518;2022-11-15T02:11:47;5.57;;;3.75;;
10056;SDS011;5068;51.286;7.518;2022-11-15T02:13:43;5.30;;;3.70;;
10056;SDS011;5068;51.286;7.518;2022-11-15T02:15:44;5.15;;;3.63;;
10056;SDS011;5068;51.286;7.518;2022-11-15T02:17:58;3.60;;;2.80;;
10056;SDS011;5068;51.286;7.518;2022-11-15T02:20:13;5.22;;;3.45;;
10056;SDS011;5068;51.286;7.518;2022-11-15T02:22:34;4.93;;;3.80;;
10056;SDS011;5068;51.286;7.518;2022-11-15T02:25:00;5.10;;;3.53;;
10056;SDS011;5068;51.286;7.518;2022-11-15T02:30:16;4.45;;;3.03;;
10056;SDS011;5068;51.286;7.518;2022-11-15T02:32:28;5.00;;;3.00;;
10056;SDS011;5068;51.286;7.518;2022-11-15T02:34:31;5.25;;;3.55;;
10056;SDS011;5068;51.286;7.518;2022-11-15T02:36:37;6.05;;;3.53;;
10056;SDS011;5068;51.286;7.518;2022-11-15T02:38:40;6.53;;;3.30;;
10056;SDS011;5068;51.286;7.518;2022-11-15T02:40:45;5.00;;;3.25;;
10056;SDS011;5068;51.286;7.518;2022-11-15T02:42:48;4.53;;;3.22;;
10056;SDS011;5068;51.286;7.518;2022-11-15T02:45:06;6.55;;;3.75;;
10056;SDS011;5068;51.286;7.518;2022-11-15T02:47:06;5.25;;;3.42;;
10056;SDS011;5068;51.286;7.518;2022-11-15T02:49:06;5.22;;;3.55;;
10056;SDS011;5068;51.286;7.518;2022-11-15T02:51:00;5.18;;;3.30;;
10056;SDS011;5068;51.286;7.518;2022-11-15T02:52:54;5.15;;;3.50;;
10056;SDS011;5068;51.286;7.518;2022-11-15T02:54:53;5.63;;;3.58;;
10056;SDS011;5068;51.286;7.518;2022-11-15T02:56:47;4.78;;;3.63;;
10056;SDS011;5068;51.286;7.518;2022-11-15T02:58:48;5.50;;;3.50;;
10056;SDS011;5068;51.286;7.518;2022-11-15T03:01:01;6.60;;;3.28;;
10056;SDS011;5068;51.286;7.518;2022-11-15T03:03:15;5.55;;;3.67;;
10056;SDS011;5068;51.286;7.518;2022-11-15T03:05:34;6.32;;;3.17;;
10056;SDS011;5068;51.286;7.518;2022-11-15T03:07:35;4.18;;;3.00;;
10056;SDS011;5068;51.286;7.518;2022-11-15T03:09:38;5.90;;;3.03;;
10056;SDS011;5068;51.286;7.518;2022-11-15T03:11:43;4.88;;;3.13;;
10056;SDS011;5068;51.286;7.518;2022-11-15T03:13:44;4.18;;;3.20;;
10056;SDS011;5068;51.286;7.518;2022-11-15T03:15:50;5.22;;;3.70;;
10056;SDS011;5068;51.286;7.518;2022-11-15T03:17:55;6.55;;;3.80;;
10056;SDS011;5068;51.286;7.518;2022-11-15T03:19:54;5.93;;;3.38;;
10056;SDS011;5068;51.286;7.518;2022-11-15T03:21:51;5.05;;;3.35;;
10056;SDS011;5068;51.286;7.518;2022-11-15T03:23:47;3.78;;;3.13;;
10056;SDS011;5068;51.286;7.518;2022-11-15T03:25:46;4.32;;;2.80;;
10056;SDS011;5068;51.286;7.518;2022-11-15T03:27:44;6.50;;;3.30;;
10056;SDS011;5068;51.286;7.518;2022-11-15T03:29:44;4.22;;;2.92;;
10056;SDS011;5068;51.286;7.518;2022-11-15T03:31:43;5.07;;;2.95;;
10056;SDS011;5068;51.286;7.518;2022-11-15T03:33:43;4.53;;;3.15;;
10056;SDS011;5068;51.286;7.518;2022-11-15T03:35:38;4.03;;;2.97;;
10056;SDS011;5068;51.286;7.518;2022-11-15T03:37:37;3.78;;;2.88;;
10056;SDS011;5068;51.286;7.518;2022-11-15T03:39:39;4.80;;;2.60;;
10056;SDS011;5068;51.286;7.518;2022-11-15T03:41:35;4.72;;;2.88;;
10056;SDS011;5068;51.286;7.518;2022-11-15T03:43:36;4.43;;;2.72;;
10056;SDS011;5068;51.286;7.518;2022-11-15T03:45:41;6.18;;;3.08;;
10056;SDS011;5068;51.286;7.518;2022-11-15T03:47:41;4.18;;;2.42;;
10056;SDS011;5068;51.286;7.518;2022-11-15T03:49:44;4.65;;;2.92;;
10056;SDS011;5068;51.286;7.518;2022-11-15T03:51:44;5.47;;;2.60;;
10056;SDS011;5068;51.286;7.518;2022-11-15T03:53:38;5.18;;;2.88;;
10056;SDS011;5068;51.286;7.518;2022-11-15T03:55:33;3.55;;;2.65;;
10056;SDS011;5068;51.286;7.518;2022-11-15T03:57:26;5.65;;;3.08;;
10056;SDS011;5068;51.286;7.518;2022-11-15T03:59:19;4.65;;;3.20;;
10056;SDS011;5068;51.286;7.518;2022-11-15T04:01:12;4.82;;;3.00;;
10056;SDS011;5068;51.286;7.518;2022-11-15T04:03:06;4.25;;;3.25;;
10056;SDS011;5068;51.286;7.518;2022-11-15T04:04:59;5.03;;;2.97;;
10056;SDS011;5068;51.286;7.518;2022-11-15T04:06:54;3.83;;;2.60;;
10056;SDS011;5068;51.286;7.518;2022-11-15T04:08:48;5.25;;;3.25;;
10056;SDS011;5068;51.286;7.518;2022-11-15T04:10:41;3.67;;;3.15;;
10056;SDS011;5068;51.286;7.518;2022-11-15T04:12:36;4.47;;;2.72;;
10056;SDS011;5068;51.286;7.518;2022-11-15T04:14:33;4.55;;;3.13;;
10056;SDS011;5068;51.286;7.518;2022-11-15T04:16:26;4.35;;;2.88;;
10056;SDS011;5068;51.286;7.518;2022-11-15T04:18:21;5.45;;;3.05;;
10056;SDS011;5068;51.286;7.518;2022-11-15T04:20:16;4.68;;;3.20;;
10056;SDS011;5068;51.286;7.518;2022-11-15T04:22:31;4.38;;;3.15;;
10056;SDS011;5068;51.286;7.518;2022-11-15T04:24:42;3.60;;;2.90;;
10056;SDS011;5068;51.286;7.518;2022-11-15T04:26:35;4.05;;;2.75;;
10056;SDS011;5068;51.286;7.518;2022-11-15T04:28:28;4.38;;;2.70;;
10056;SDS011;5068;51.286;7.518;2022-11-15T04:30:22;3.92;;;2.70;;
10056;SDS011;5068;51.286;7.518;2022-11-15T04:34:07;4.70;;;2.88;;
10056;SDS011;5068;51.286;7.518;2022-11-15T04:36:00;5.65;;;3.15;;
10056;SDS011;5068;51.286;7.518;2022-11-15T04:38:12;5.22;;;2.97;;
10056;SDS011;5068;51.286;7.518;2022-11-15T04:40:06;4.00;;;3.10;;
10056;SDS011;5068;51.286;7.518;2022-11-15T04:42:00;5.97;;;3.90;;
10056;SDS011;5068;51.286;7.518;2022-11-15T04:43:53;5.30;;;3.70;;
10056;SDS011;5068;51.286;7.518;2022-11-15T04:45:47;4.60;;;3.13;;
10056;SDS011;5068;51.286;7.518;2022-11-15T04:47:40;3.42;;;2.85;;
10056;SDS011;5068;51.286;7.518;2022-11-15T04:49:36;3.83;;;3.42;;
10056;SDS011;5068;51.286;7.518;2022-11-15T04:51:29;4.18;;;3.13;;
10056;SDS011;5068;51.286;7.518;2022-11-15T04:53:24;4.97;;;3.47;;
10056;SDS011;5068;51.286;7.518;2022-11-15T04:55:17;5.25;;;3.45;;
10056;SDS011;5068;51.286;7.518;2022-11-15T04:57:10;5.65;;;3.55;;
10056;SDS011;5068;51.286;7.518;2022-11-15T04:59:04;5.43;;;3.40;;
10056;SDS011;5068;51.286;7.518;2022-11-15T05:00:57;5.57;;;3.33;;
10056;SDS011;5068;51.286;7.518;2022-11-15T05:02:50;3.83;;;2.83;;
10056;SDS011;5068;51.286;7.518;2022-11-15T05:05:01;4.85;;;3.47;;
10056;SDS011;5068;51.286;7.518;2022-11-15T05:06:54;4.65;;;3.20;;
10056;SDS011;5068;51.286;7.518;2022-11-15T05:08:49;5.00;;;3.80;;
10056;SDS011;5068;51.286;7.518;2022-11-15T05:10:42;5.53;;;3.25;;
10056;SDS011;5068;51.286;7.518;2022-11-15T05:12:36;5.90;;;3.40;;
10056;SDS011;5068;51.286;7.518;2022-11-15T05:14:30;4.57;;;3.15;;
10056;SDS011;5068;51.286;7.518;2022-11-15T05:16:23;6.53;;;3.30;;
10056;SDS011;5068;51.286;7.518;2022-11-15T05:18:16;6.00;;;3.50;;
10056;SDS011;5068;51.286;7.518;2022-11-15T05:20:14;4.57;;;3.20;;
10056;SDS011;5068;51.286;7.518;2022-11-15T05:22:07;5.25;;;3.25;;
10056;SDS011;5068;51.286;7.518;2022-11-15T05:24:02;4.35;;;2.72;;
10056;SDS011;5068;51.286;7.518;2022-11-15T05:25:58;4.68;;;3.47;;
10056;SDS011;5068;51.286;7.518;2022-11-15T05:27:59;4.88;;;3.00;;
10056;SDS011;5068;51.286;7.518;2022-11-15T05:29:52;4.15;;;3.42;;
10056;SDS011;5068;51.286;7.518;2022-11-15T05:31:45;5.20;;;3.45;;
10056;SDS011;5068;51.286;7.518;2022-11-15T05:33:39;7.03;;;3.13;;
10056;SDS011;5068;51.286;7.518;2022-11-15T05:35:35;3.78;;;3.00;;
10056;SDS011;5068;51.286;7.518;2022-11-15T05:37:37;5.63;;;3.28;;
10056;SDS011;5068;51.286;7.518;2022-11-15T05:39:31;4.00;;;3.00;;
10056;SDS011;5068;51.286;7.518;2022-11-15T05:41:28;3.95;;;2.50;;
10056;SDS011;5068;51.286;7.518;2022-11-15T05:43:27;3.83;;;2.70;;
10056;SDS011;5068;51.286;7.518;2022-11-15T05:45:24;4.18;;;3.17;;
10056;SDS011;5068;51.286;7.518;2022-11-15T05:47:18;4.82;;;2.63;;
10056;SDS011;5068;51.286;7.518;2022-11-15T05:49:16;4.18;;;2.70;;
10056;SDS011;5068;51.286;7.518;2022-11-15T05:51:14;4.70;;;2.70;;
10056;SDS011;5068;51.286;7.518;2022-11-15T05:53:09;4.25;;;2.38;;
10056;SDS011;5068;51.286;7.518;2022-11-15T05:55:07;3.55;;;2.63;;
10056;SDS011;5068;51.286;7.518;2022-11-15T05:57:05;3.63;;;2.80;;
10056;SDS011;5068;51.286;7.518;2022-11-15T05:58:59;4.45;;;2.97;;
10056;SDS011;5068;51.286;7.518;2022-11-15T06:00:52;5.93;;;3.08;;
10056;SDS011;5068;51.286;7.518;2022-11-15T06:02:47;3.92;;;2.80;;
10056;SDS011;5068;51.286;7.518;2022-11-15T06:04:40;4.45;;;2.67;;
10056;SDS011;5068;51.286;7.518;2022-11-15T06:06:33;4.85;;;3.22;;
10056;SDS011;5068;51.286;7.518;2022-11-15T06:08:26;3.83;;;2.58;;
10056;SDS011;5068;51.286;7.518;2022-11-15T06:10:21;3.67;;;2.40;;
10056;SDS011;5068;51.286;7.518;2022-11-15T06:12:14;5.30;;;2.42;;
10056;SDS011;5068;51.286;7.518;2022-11-15T06:14:07;4.40;;;2.75;;
10056;SDS011;5068;51.286;7.518;2022-11-15T06:16:00;3.65;;;2.40;;
10056;SDS011;5068;51.286;7.518;2022-11-15T06:17:55;3.10;;;2.25;;
10056;SDS011;5068;51.286;7.518;2022-11-15T06:19:49;3.75;;;2.30;;
10056;SDS011;5068;51.286;7.518;2022-11-15T06:21:43;3.45;;;2.50;;
10056;SDS011;5068;51.286;7.518;2022-11-15T06:23:36;3.33;;;2.55;;
10056;SDS011;5068;51.286;7.518;2022-11-15T06:25:31;2.47;;;2.22;;
10056;SDS011;5068;51.286;7.518;2022-11-15T06:27:24;3.67;;;1.95;;
10056;SDS011;5068;51.286;7.518;2022-11-15T06:29:17;3.00;;;2.20;;
10056;SDS011;5068;51.286;7.518;2022-11-15T06:31:10;3.80;;;2.13;;
10056;SDS011;5068;51.286;7.518;2022-11-15T06:33:05;2.88;;;1.88;;
10056;SDS011;5068;51.286;7.518;2022-11-15T06:35:00;3.10;;;1.83;;
10056;SDS011;5068;51.286;7.518;2022-11-15T06:36:53;2.95;;;1.77;;
10056;SDS011;5068;51.286;7.518;2022-11-15T06:38:46;3.08;;;2.25;;
10056;SDS011;5068;51.286;7.518;2022-11-15T06:40:41;2.45;;;1.65;;
10056;SDS011;5068;51.286;7.518;2022-11-15T06:42:34;2.40;;;1.45;;
10056;SDS011;5068;51.286;7.518;2022-11-15T06:44:28;2.75;;;1.98;;
10056;SDS011;5068;51.286;7.518;2022-11-15T06:46:21;3.47;;;1.75;;
10056;SDS011;5068;51.286;7.518;2022-11-15T06:48:14;2.63;;;1.80;;
10056;SDS011;5068;51.286;7.518;2022-11-15T06:50:08;2.00;;;1.38;;
10056;SDS011;5068;51.286;7.518;2022-11-15T06:52:01;2.75;;;1.83;;
10056;SDS011;5068;51.286;7.518;2022-11-15T06:53:54;2.33;;;1.25;;
10056;SDS011;5068;51.286;7.518;2022-11-15T06:55:49;3.15;;;1.50;;
10056;SDS011;5068;51.286;7.518;2022-11-15T06:59:40;2.25;;;1.30;;
10056;SDS011;5068;51.286;7.518;2022-11-15T07:01:34;2.80;;;1.42;;
10056;SDS011;5068;51.286;7.518;2022-11-15T07:03:27;1.75;;;1.00;;
10056;SDS011;5068;51.286;7.518;2022-11-15T07:05:21;2.15;;;1.40;;
10056;SDS011;5068;51.286;7.518;2022-11-15T07:07:15;3.17;;;1.40;;
10056;SDS011;5068;51.286;7.518;2022-11-15T07:09:09;1.80;;;1.17;;
10056;SDS011;5068;51.286;7.518;2022-11-15T07:11:04;4.22;;;1.55;;
10056;SDS011;5068;51.286;7.518;2022-11-15T07:12:59;2.70;;;1.42;;
10056;SDS011;5068;51.286;7.518;2022-11-15T07:14:53;2.60;;;1.50;;
10056;SDS011;5068;51.286;7.518;2022-11-15T07:16:46;2.35;;;1.60;;
10056;SDS011;5068;51.286;7.518;2022-11-15T07:18:40;2.28;;;1.33;;
10056;SDS011;5068;51.286;7.518;2022-11-15T07:20:33;1.60;;;1.27;;
10056;SDS011;5068;51.286;7.518;2022-11-15T07:22:26;2.17;;;1.20;;
10056;SDS011;5068;51.286;7.518;2022-11-15T07:24:20;1.92;;;1.20;;
10056;SDS011;5068;51.286;7.518;2022-11-15T07:26:14;2.58;;;1.27;;
10056;SDS011;5068;51.286;7.518;2022-11-15T07:28:08;1.80;;;1.20;;
10056;SDS011;5068;51.286;7.518;2022-11-15T07:30:02;1.63;;;1.10;;
10056;SDS011;5068;51.286;7.518;2022-11-15T07:31:56;1.13;;;0.88;;
10056;SDS011;5068;51.286;7.518;2022-11-15T07:33:50;1.83;;;1.10;;
10056;SDS011;5068;51.286;7.518;2022-11-15T07:35:43;1.83;;;1.20;;
10056;SDS011;5068;51.286;7.518;2022-11-15T07:37:40;1.70;;;1.20;;
10056;SDS011;5068;51.286;7.518;2022-11-15T07:39:33;2.10;;;1.20;;
10056;SDS011;5068;51.286;7.518;2022-11-15T07:41:28;2.33;;;1.30;;
10056;SDS011;5068;51.286;7.518;2022-11-15T07:43:21;2.63;;;1.27;;
10056;SDS011;5068;51.286;7.518;2022-11-15T07:45:14;2.15;;;1.15;;
10056;SDS011;5068;51.286;7.518;2022-11-15T07:47:07;2.85;;;1.20;;
10056;SDS011;5068;51.286;7.518;2022-11-15T07:49:01;1.45;;;1.00;;
10056;SDS011;5068;51.286;7.518;2022-11-15T07:50:54;1.48;;;0.95;;
10056;SDS011;5068;51.286;7.518;2022-11-15T07:52:47;1.50;;;0.98;;
10056;SDS011;5068;51.286;7.518;2022-11-15T07:54:45;1.92;;;1.00;;
10056;SDS011;5068;51.286;7.518;2022-11-15T07:56:40;1.23;;;1.02;;
10056;SDS011;5068;51.286;7.518;2022-11-15T07:58:33;1.35;;;0.93;;
10056;SDS011;5068;51.286;7.518;2022-11-15T08:00:26;1.10;;;0.85;;
10056;SDS011;5068;51.286;7.518;2022-11-15T08:02:19;1.33;;;0.70;;
10056;SDS011;5068;51.286;7.518;2022-11-15T08:04:19;2.45;;;1.00;;
10056;SDS011;5068;51.286;7.518;2022-11-15T08:06:12;1.15;;;0.80;;
10056;SDS011;5068;51.286;7.518;2022-11-15T08:08:06;1.65;;;1.15;;
10056;SDS011;5068;51.286;7.518;2022-11-15T08:10:02;1.15;;;0.73;;
10056;SDS011;5068;51.286;7.518;2022-11-15T08:11:58;3.33;;;0.93;;
10056;SDS011;5068;51.286;7.518;2022-11-15T08:13:51;2.13;;;0.80;;
10056;SDS011;5068;51.286;7.518;2022-11-15T08:15:44;1.33;;;0.80;;
10056;SDS011;5068;51.286;7.518;2022-11-15T08:17:38;1.40;;;0.80;;
10056;SDS011;5068;51.286;7.518;2022-11-15T08:19:31;2.50;;;0.90;;
10056;SDS011;5068;51.286;7.518;2022-11-15T08:21:24;1.20;;;0.75;;
10056;SDS011;5068;51.286;7.518;2022-11-15T08:23:17;1.40;;;1.05;;
10056;SDS011;5068;51.286;7.518;2022-11-15T08:25:10;1.75;;;0.98;;
10056;SDS011;5068;51.286;7.518;2022-11-15T08:27:05;1.27;;;0.77;;
10056;SDS011;5068;51.286;7.518;2022-11-15T08:29:06;1.38;;;0.77;;
10056;SDS011;5068;51.286;7.518;2022-11-15T08:30:59;2.33;;;0.90;;
10056;SDS011;5068;51.286;7.518;2022-11-15T08:32:55;3.00;;;0.75;;
10056;SDS011;5068;51.286;7.518;2022-11-15T08:34:50;1.95;;;0.70;;
10056;SDS011;5068;51.286;7.518;2022-11-15T08:36:43;1.40;;;0.70;;
10056;SDS011;5068;51.286;7.518;2022-11-15T08:38:37;1.85;;;0.90;;
10056;SDS011;5068;51.286;7.518;2022-11-15T08:40:31;1.75;;;0.73;;
10056;SDS011;5068;51.286;7.518;2022-11-15T08:42:25;1.55;;;0.80;;
10056;SDS011;5068;51.286;7.518;2022-11-15T08:44:19;1.50;;;0.63;;
10056;SDS011;5068;51.286;7.518;2022-11-15T08:46:12;1.88;;;0.70;;
10056;SDS011;5068;51.286;7.518;2022-11-15T08:48:06;1.50;;;0.60;;
10056;SDS011;5068;51.286;7.518;2022-11-15T08:49:59;1.23;;;0.70;;
10056;SDS011;5068;51.286;7.518;2022-11-15T08:51:53;1.23;;;0.63;;
10056;SDS011;5068;51.286;7.518;2022-11-15T08:53:46;1.15;;;0.60;;
10056;SDS011;5068;51.286;7.518;2022-11-15T08:55:40;1.23;;;0.60;;
10056;SDS011;5068;51.286;7.518;2022-11-15T08:57:35;1.10;;;0.63;;
10056;SDS011;5068;51.286;7.518;2022-11-15T08:59:28;1.00;;;0.65;;
10056;SDS011;5068;51.286;7.518;2022-11-15T09:01:21;1.63;;;0.80;;
10056;SDS011;5068;51.286;7.518;2022-11-15T09:03:15;1.25;;;0.60;;
10056;SDS011;5068;51.286;7.518;2022-11-15T09:05:08;0.93;;;0.60;;
10056;SDS011;5068;51.286;7.518;2022-11-15T09:07:01;3.08;;;0.65;;
10056;SDS011;5068;51.286;7.518;2022-11-15T09:08:55;1.98;;;0.90;;
10056;SDS011;5068;51.286;7.518;2022-11-15T09:10:48;1.23;;;0.70;;
10056;SDS011;5068;51.286;7.518;2022-11-15T09:12:43;2.03;;;0.65;;
10056;SDS011;5068;51.286;7.518;2022-11-15T09:14:39;3.10;;;0.70;;
10056;SDS011;5068;51.286;7.518;2022-11-15T09:16:34;1.95;;;0.80;;
10056;SDS011;5068;51.286;7.518;2022-11-15T09:18:27;1.77;;;0.70;;
10056;SDS011;5068;51.286;7.518;2022-11-15T09:20:21;1.13;;;0.60;;
10056;SDS011;5068;51.286;7.518;2022-11-15T09:22:14;2.08;;;0.80;;
10056;SDS011;5068;51.286;7.518;2022-11-15T09:24:07;2.85;;;0.90;;
10056;SDS011;5068;51.286;7.518;2022-11-15T09:26:01;2.40;;;0.90;;
10056;SDS011;5068;51.286;7.518;2022-11-15T09:27:58;1.63;;;0.70;;
10056;SDS011;5068;51.286;7.518;2022-11-15T09:29:52;1.30;;;0.70;;
10056;SDS011;5068;51.286;7.518;2022-11-15T09:31:45;1.38;;;0.73;;
10056;SDS011;5068;51.286;7.518;2022-11-15T09:33:38;1.17;;;0.70;;
10056;SDS011;5068;51.286;7.518;2022-11-15T09:35:32;1.33;;;0.75;;
10056;SDS011;5068;51.286;7.518;2022-11-15T09:37:25;1.63;;;0.63;;
10056;SDS011;5068;51.286;7.518;2022-11-15T09:39:19;2.33;;;0.80;;
10056;SDS011;5068;51.286;7.518;2022-11-15T09:41:24;1.40;;;0.77;;
10056;SDS011;5068;51.286;7.518;2022-11-15T09:43:37;1.45;;;0.60;;
10056;SDS011;5068;51.286;7.518;2022-11-15T09:45:41;2.17;;;0.70;;
10056;SDS011;5068;51.286;7.518;2022-11-15T09:47:54;1.02;;;0.60;;
10056;SDS011;5068;51.286;7.518;2022-11-15T09:50:31;1.55;;;0.65;;
10056;SDS011;5068;51.286;7.518;2022-11-15T09:52:11;2.08;;;0.80;;
10056;SDS011;5068;51.286;7.518;2022-11-15T09:53:47;1.58;;;0.70;;
10056;SDS011;5068;51.286;7.518;2022-11-15T09:55:51;0.65;;;0.40;;
10056;SDS011;5068;51.286;7.518;2022-11-15T09:57:33;2.33;;;0.60;;
10056;SDS011;5068;51.286;7.518;2022-11-15T09:59:22;4.78;;;0.70;;
10056;SDS011;5068;51.286;7.518;2022-11-15T10:01:19;1.20;;;0.80;;
10056;SDS011;5068;51.286;7.518;2022-11-15T10:03:09;1.63;;;0.77;;
10056;SDS011;5068;51.286;7.518;2022-11-15T10:04:46;1.88;;;0.70;;
10056;SDS011;5068;51.286;7.518;2022-11-15T10:06:21;2.00;;;0.70;;
10056;SDS011;5068;51.286;7.518;2022-11-15T10:07:59;1.00;;;0.70;;
10056;SDS011;5068;51.286;7.518;2022-11-15T10:09:46;1.67;;;0.80;;
10056;SDS011;5068;51.286;7.518;2022-11-15T10:11:26;2.53;;;0.80;;
10056;SDS011;5068;51.286;7.518;2022-11-15T10:13:12;0.73;;;0.60;;
10056;SDS011;5068;51.286;7.518;2022-11-15T10:14:58;2.30;;;0.63;;
10056;SDS011;5068;51.286;7.518;2022-11-15T10:16:44;1.60;;;0.70;;
10056;SDS011;5068;51.286;7.518;2022-11-15T10:18:48;2.60;;;0.60;;
10056;SDS011;5068;51.286;7.518;2022-11-15T10:20:32;2.13;;;0.70;;
10056;SDS011;5068;51.286;7.518;2022-11-15T10:22:20;1.55;;;0.80;;
10056;SDS011;5068;51.286;7.518;2022-11-15T10:23:59;2.20;;;0.82;;
10056;SDS011;5068;51.286;7.518;2022-11-15T10:25:33;1.58;;;0.63;;
10056;SDS011;5068;51.286;7.518;2022-11-15T10:27:09;1.48;;;0.60;;
10056;SDS011;5068;51.286;7.518;2022-11-15T10:28:45;1.67;;;0.93;;
10056;SDS011;5068;51.286;7.518;2022-11-15T10:30:21;2.28;;;0.90;;
10056;SDS011;5068;51.286;7.518;2022-11-15T10:31:55;2.30;;;0.80;;
10056;SDS011;5068;51.286;7.518;2022-11-15T10:33:30;2.97;;;0.80;;
10056;SDS011;5068;51.286;7.518;2022-11-15T10:35:15;2.05;;;0.85;;
10056;SDS011;5068;51.286;7.518;2022-11-15T10:36:56;2.42;;;0.60;;
10056;SDS011;5068;51.286;7.518;2022-11-15T10:38:31;0.90;;;0.57;;
10056;SDS011;5068;51.286;7.518;2022-11-15T10:40:06;1.98;;;0.60;;
10056;SDS011;5068;51.286;7.518;2022-11-15T10:41:49;1.45;;;0.70;;
10056;SDS011;5068;51.286;7.518;2022-11-15T10:43:23;0.88;;;0.55;;
10056;SDS011;5068;51.286;7.518;2022-11-15T10:44:57;2.85;;;0.70;;
10056;SDS011;5068;51.286;7.518;2022-11-15T10:46:32;1.55;;;0.73;;
10056;SDS011;5068;51.286;7.518;2022-11-15T10:48:23;1.35;;;0.77;;
10056;SDS011;5068;51.286;7.518;2022-11-15T10:49:58;1.27;;;0.50;;
10056;SDS011;5068;51.286;7.518;2022-11-15T10:51:37;1.63;;;0.70;;
10056;SDS011;5068;51.286;7.518;2022-11-15T10:53:19;1.05;;;0.70;;
10056;SDS011;5068;51.286;7.518;2022-11-15T10:55:20;2.60;;;0.80;;
10056;SDS011;5068;51.286;7.518;2022-11-15T10:56:59;1.67;;;0.52;;
10056;SDS011;5068;51.286;7.518;2022-11-15T10:58:39;0.85;;;0.40;;
10056;SDS011;5068;51.286;7.518;2022-11-15T11:00:26;1.85;;;0.60;;
10056;SDS011;5068;51.286;7.518;2022-11-15T11:04:04;1.88;;;0.55;;
10056;SDS011;5068;51.286;7.518;2022-11-15T11:05:39;1.75;;;0.50;;
10056;SDS011;5068;51.286;7.518;2022-11-15T11:07:19;2.22;;;0.82;;
10056;SDS011;5068;51.286;7.518;2022-11-15T11:08:56;1.67;;;0.70;;
10056;SDS011;5068;51.286;7.518;2022-11-15T11:10:31;0.88;;;0.45;;
10056;SDS011;5068;51.286;7.518;2022-11-15T11:12:26;1.25;;;0.50;;
10056;SDS011;5068;51.286;7.518;2022-11-15T11:14:11;1.63;;;0.80;;
10056;SDS011;5068;51.286;7.518;2022-11-15T11:15:46;2.05;;;0.50;;
10056;SDS011;5068;51.286;7.518;2022-11-15T11:17:32;1.83;;;0.60;;
10056;SDS011;5068;51.286;7.518;2022-11-15T11:19:30;1.52;;;0.70;;
10056;SDS011;5068;51.286;7.518;2022-11-15T11:21:23;2.65;;;0.90;;
10056;SDS011;5068;51.286;7.518;2022-11-15T11:23:32;0.90;;;0.50;;
10056;SDS011;5068;51.286;7.518;2022-11-15T11:25:19;1.45;;;0.63;;
10056;SDS011;5068;51.286;7.518;2022-11-15T11:27:12;0.77;;;0.43;;
10056;SDS011;5068;51.286;7.518;2022-11-15T11:29:00;1.33;;;0.60;;
10056;SDS011;5068;51.286;7.518;2022-11-15T11:32:44;2.08;;;0.57;;
10056;SDS011;5068;51.286;7.518;2022-11-15T11:34:34;1.15;;;0.52;;
10056;SDS011;5068;51.286;7.518;2022-11-15T11:36:24;1.30;;;0.60;;
10056;SDS011;5068;51.286;7.518;2022-11-15T11:38:10;1.98;;;0.70;;
10056;SDS011;5068;51.286;7.518;2022-11-15T11:40:00;0.88;;;0.47;;
10056;SDS011;5068;51.286;7.518;2022-11-15T11:41:55;0.77;;;0.40;;
10056;SDS011;5068;51.286;7.518;2022-11-15T11:43:51;0.60;;;0.40;;
10056;SDS011;5068;51.286;7.518;2022-11-15T11:45:43;1.42;;;0.47;;
10056;SDS011;5068;51.286;7.518;2022-11-15T11:47:37;1.60;;;0.43;;